sensor_id;sensor_type;location;lat;lon;timestamp;temperature;humidity
54938;DHT22;52756;52.826;6.214;2024-01-30T00:01:28;7.20;91.70
54938;DHT22;52756;52.826;6.214;2024-01-30T00:03:54;7.10;91.70
54938;DHT22;52756;52.826;6.214;2024-01-30T00:06:20;7.20;91.80
54938;DHT22;52756;52.826;6.214;2024-01-30T00:08:49;7.20;91.80
54938;DHT22;52756;52.826;6.214;2024-01-30T00:11:16;7.20;91.90
54938;DHT22;52756;52.826;6.214;2024-01-30T00:13:41;7.30;91.90
54938;DHT22;52756;52.826;6.214;2024-01-30T00:16:07;7.20;92.00
54938;DHT22;52756;52.826;6.214;2024-01-30T00:18:34;7.20;92.00
54938;DHT22;52756;52.826;6.214;2024-01-30T00:21:00;7.20;92.00
54938;DHT22;52756;52.826;6.214;2024-01-30T00:23:25;7.30;92.00
54938;DHT22;52756;52.826;6.214;2024-01-30T00:25:51;7.30;92.00
54938;DHT22;52756;52.826;6.214;2024-01-30T00:28:17;7.30;92.00
54938;DHT22;52756;52.826;6.214;2024-01-30T00:30:42;7.30;92.00
54938;DHT22;52756;52.826;6.214;2024-01-30T00:33:09;7.60;92.10
54938;DHT22;52756;52.826;6.214;2024-01-30T00:35:34;7.30;91.90
54938;DHT22;52756;52.826;6.214;2024-01-30T00:38:00;7.30;91.90
54938;DHT22;52756;52.826;6.214;2024-01-30T00:40:26;7.30;91.90
54938;DHT22;52756;52.826;6.214;2024-01-30T00:42:51;7.40;91.90
54938;DHT22;52756;52.826;6.214;2024-01-30T00:45:17;7.20;91.80
54938;DHT22;52756;52.826;6.214;2024-01-30T00:47:44;7.20;92.00
54938;DHT22;52756;52.826;6.214;2024-01-30T00:50:09;7.20;91.80
54938;DHT22;52756;52.826;6.214;2024-01-30T00:52:35;7.20;91.80
54938;DHT22;52756;52.826;6.214;2024-01-30T00:55:01;7.20;91.70
54938;DHT22;52756;52.826;6.214;2024-01-30T00:57:28;7.20;91.70
54938;DHT22;52756;52.826;6.214;2024-01-30T00:59:54;7.20;91.70
54938;DHT22;52756;52.826;6.214;2024-01-30T01:02:20;7.10;91.70
54938;DHT22;52756;52.826;6.214;2024-01-30T01:04:46;7.10;91.70
54938;DHT22;52756;52.826;6.214;2024-01-30T01:07:11;7.10;91.70
54938;DHT22;52756;52.826;6.214;2024-01-30T01:09:37;7.10;91.80
54938;DHT22;52756;52.826;6.214;2024-01-30T01:12:03;7.00;91.60
54938;DHT22;52756;52.826;6.214;2024-01-30T01:14:29;7.00;91.60
54938;DHT22;52756;52.826;6.214;2024-01-30T01:16:55;7.00;91.60
54938;DHT22;52756;52.826;6.214;2024-01-30T01:19:21;7.00;91.60
54938;DHT22;52756;52.826;6.214;2024-01-30T01:21:47;7.00;91.60
54938;DHT22;52756;52.826;6.214;2024-01-30T01:24:16;6.90;91.60
54938;DHT22;52756;52.826;6.214;2024-01-30T01:26:41;7.10;91.70
54938;DHT22;52756;52.826;6.214;2024-01-30T01:29:07;6.90;91.60
54938;DHT22;52756;52.826;6.214;2024-01-30T01:31:37;6.90;91.60
54938;DHT22;52756;52.826;6.214;2024-01-30T01:34:12;6.80;91.60
54938;DHT22;52756;52.826;6.214;2024-01-30T01:36:38;6.80;91.60
54938;DHT22;52756;52.826;6.214;2024-01-30T01:39:05;6.80;91.60
54938;DHT22;52756;52.826;6.214;2024-01-30T01:41:31;6.80;91.60
54938;DHT22;52756;52.826;6.214;2024-01-30T01:43:57;6.70;91.60
54938;DHT22;52756;52.826;6.214;2024-01-30T01:46:23;6.70;91.60
54938;DHT22;52756;52.826;6.214;2024-01-30T01:48:49;6.70;91.60
54938;DHT22;52756;52.826;6.214;2024-01-30T01:51:15;6.70;91.60
54938;DHT22;52756;52.826;6.214;2024-01-30T01:53:41;6.60;91.60
54938;DHT22;52756;52.826;6.214;2024-01-30T01:56:07;6.60;91.60
54938;DHT22;52756;52.826;6.214;2024-01-30T01:58:33;6.60;91.60
54938;DHT22;52756;52.826;6.214;2024-01-30T02:00:59;6.60;91.70
54938;DHT22;52756;52.826;6.214;2024-01-30T02:03:25;6.60;91.70
54938;DHT22;52756;52.826;6.214;2024-01-30T02:05:51;6.50;91.70
54938;DHT22;52756;52.826;6.214;2024-01-30T02:08:17;6.50;91.70
54938;DHT22;52756;52.826;6.214;2024-01-30T02:10:43;6.50;91.70
54938;DHT22;52756;52.826;6.214;2024-01-30T02:13:08;6.50;91.80
54938;DHT22;52756;52.826;6.214;2024-01-30T02:15:34;6.40;91.80
54938;DHT22;52756;52.826;6.214;2024-01-30T02:17:59;6.40;91.80
54938;DHT22;52756;52.826;6.214;2024-01-30T02:20:25;6.40;91.80
54938;DHT22;52756;52.826;6.214;2024-01-30T02:22:56;6.40;91.80
54938;DHT22;52756;52.826;6.214;2024-01-30T02:25:31;6.40;91.80
54938;DHT22;52756;52.826;6.214;2024-01-30T02:27:57;6.40;91.80
54938;DHT22;52756;52.826;6.214;2024-01-30T02:30:22;6.30;91.70
54938;DHT22;52756;52.826;6.214;2024-01-30T02:32:48;6.30;91.70
54938;DHT22;52756;52.826;6.214;2024-01-30T02:35:14;6.30;91.70
54938;DHT22;52756;52.826;6.214;2024-01-30T02:37:39;6.30;91.70
54938;DHT22;52756;52.826;6.214;2024-01-30T02:40:05;6.20;91.70
54938;DHT22;52756;52.826;6.214;2024-01-30T02:42:31;6.20;91.70
54938;DHT22;52756;52.826;6.214;2024-01-30T02:44:57;6.20;91.80
54938;DHT22;52756;52.826;6.214;2024-01-30T02:47:22;6.20;91.80
54938;DHT22;52756;52.826;6.214;2024-01-30T02:49:48;6.20;91.80
54938;DHT22;52756;52.826;6.214;2024-01-30T02:52:13;6.10;91.80
54938;DHT22;52756;52.826;6.214;2024-01-30T02:54:39;6.10;91.80
54938;DHT22;52756;52.826;6.214;2024-01-30T02:57:05;6.10;91.90
54938;DHT22;52756;52.826;6.214;2024-01-30T02:59:30;6.10;91.90
54938;DHT22;52756;52.826;6.214;2024-01-30T03:01:58;6.10;91.80
54938;DHT22;52756;52.826;6.214;2024-01-30T03:04:24;6.00;91.80
54938;DHT22;52756;52.826;6.214;2024-01-30T03:06:50;5.90;91.80
54938;DHT22;52756;52.826;6.214;2024-01-30T03:09:16;6.60;92.00
54938;DHT22;52756;52.826;6.214;2024-01-30T03:11:43;5.90;91.80
54938;DHT22;52756;52.826;6.214;2024-01-30T03:14:08;5.90;91.90
54938;DHT22;52756;52.826;6.214;2024-01-30T03:16:37;5.90;92.00
54938;DHT22;52756;52.826;6.214;2024-01-30T03:19:03;5.90;92.00
54938;DHT22;52756;52.826;6.214;2024-01-30T03:21:29;5.90;92.10
54938;DHT22;52756;52.826;6.214;2024-01-30T03:23:55;5.90;92.30
54938;DHT22;52756;52.826;6.214;2024-01-30T03:26:20;5.90;92.20
54938;DHT22;52756;52.826;6.214;2024-01-30T03:28:46;5.90;92.20
54938;DHT22;52756;52.826;6.214;2024-01-30T03:31:15;5.90;92.30
54938;DHT22;52756;52.826;6.214;2024-01-30T03:33:41;6.00;92.40
54938;DHT22;52756;52.826;6.214;2024-01-30T03:36:07;6.00;92.40
54938;DHT22;52756;52.826;6.214;2024-01-30T03:38:33;6.00;92.50
54938;DHT22;52756;52.826;6.214;2024-01-30T03:40:59;6.70;92.70
54938;DHT22;52756;52.826;6.214;2024-01-30T03:43:25;6.00;92.60
54938;DHT22;52756;52.826;6.214;2024-01-30T03:45:51;6.10;92.70
54938;DHT22;52756;52.826;6.214;2024-01-30T03:48:16;6.10;92.80
54938;DHT22;52756;52.826;6.214;2024-01-30T03:50:42;6.20;92.90
54938;DHT22;52756;52.826;6.214;2024-01-30T03:53:07;6.20;92.90
54938;DHT22;52756;52.826;6.214;2024-01-30T03:55:33;6.20;92.90
54938;DHT22;52756;52.826;6.214;2024-01-30T03:57:59;6.30;93.00
54938;DHT22;52756;52.826;6.214;2024-01-30T04:00:24;6.30;93.10
54938;DHT22;52756;52.826;6.214;2024-01-30T04:02:50;6.30;93.10
54938;DHT22;52756;52.826;6.214;2024-01-30T04:05:16;6.40;93.20
54938;DHT22;52756;52.826;6.214;2024-01-30T04:07:42;6.40;93.30
54938;DHT22;52756;52.826;6.214;2024-01-30T04:10:09;6.50;93.30
54938;DHT22;52756;52.826;6.214;2024-01-30T04:12:35;6.60;93.30
54938;DHT22;52756;52.826;6.214;2024-01-30T04:15:01;6.60;93.30
54938;DHT22;52756;52.826;6.214;2024-01-30T04:17:27;6.60;93.30
54938;DHT22;52756;52.826;6.214;2024-01-30T04:19:54;6.60;93.30
54938;DHT22;52756;52.826;6.214;2024-01-30T04:22:20;6.70;93.30
54938;DHT22;52756;52.826;6.214;2024-01-30T04:24:46;6.70;93.30
54938;DHT22;52756;52.826;6.214;2024-01-30T04:27:12;6.70;93.30
54938;DHT22;52756;52.826;6.214;2024-01-30T04:29:37;6.70;93.30
54938;DHT22;52756;52.826;6.214;2024-01-30T04:32:03;6.70;93.30
54938;DHT22;52756;52.826;6.214;2024-01-30T04:34:29;6.80;93.30
54938;DHT22;52756;52.826;6.214;2024-01-30T04:36:55;6.80;93.30
54938;DHT22;52756;52.826;6.214;2024-01-30T04:39:20;6.80;93.30
54938;DHT22;52756;52.826;6.214;2024-01-30T04:41:46;6.90;93.30
54938;DHT22;52756;52.826;6.214;2024-01-30T04:44:11;6.80;93.30
54938;DHT22;52756;52.826;6.214;2024-01-30T04:46:37;6.90;93.30
54938;DHT22;52756;52.826;6.214;2024-01-30T04:49:03;6.90;93.30
54938;DHT22;52756;52.826;6.214;2024-01-30T04:51:29;6.90;93.30
54938;DHT22;52756;52.826;6.214;2024-01-30T04:53:55;7.00;93.30
54938;DHT22;52756;52.826;6.214;2024-01-30T04:56:21;7.00;93.20
54938;DHT22;52756;52.826;6.214;2024-01-30T04:58:46;7.00;93.20
54938;DHT22;52756;52.826;6.214;2024-01-30T05:01:16;7.00;93.20
54938;DHT22;52756;52.826;6.214;2024-01-30T05:03:42;7.00;93.20
54938;DHT22;52756;52.826;6.214;2024-01-30T05:06:08;7.10;93.20
54938;DHT22;52756;52.826;6.214;2024-01-30T05:08:33;7.10;93.10
54938;DHT22;52756;52.826;6.214;2024-01-30T05:11:02;7.10;93.10
54938;DHT22;52756;52.826;6.214;2024-01-30T05:13:30;7.80;93.30
54938;DHT22;52756;52.826;6.214;2024-01-30T05:15:55;7.20;93.10
54938;DHT22;52756;52.826;6.214;2024-01-30T05:18:21;7.20;93.10
54938;DHT22;52756;52.826;6.214;2024-01-30T05:20:47;7.20;93.00
54938;DHT22;52756;52.826;6.214;2024-01-30T05:23:12;7.20;93.00
54938;DHT22;52756;52.826;6.214;2024-01-30T05:25:38;7.20;92.90
54938;DHT22;52756;52.826;6.214;2024-01-30T05:28:04;7.20;92.90
54938;DHT22;52756;52.826;6.214;2024-01-30T05:30:29;7.30;92.90
54938;DHT22;52756;52.826;6.214;2024-01-30T05:32:55;7.30;92.80
54938;DHT22;52756;52.826;6.214;2024-01-30T05:35:20;7.30;92.80
54938;DHT22;52756;52.826;6.214;2024-01-30T05:37:48;7.30;92.80
54938;DHT22;52756;52.826;6.214;2024-01-30T05:40:14;7.30;92.70
54938;DHT22;52756;52.826;6.214;2024-01-30T05:42:40;7.30;92.70
54938;DHT22;52756;52.826;6.214;2024-01-30T05:45:06;7.30;92.70
54938;DHT22;52756;52.826;6.214;2024-01-30T05:47:31;7.30;92.60
54938;DHT22;52756;52.826;6.214;2024-01-30T05:49:57;7.40;92.60
54938;DHT22;52756;52.826;6.214;2024-01-30T05:52:23;7.40;92.60
54938;DHT22;52756;52.826;6.214;2024-01-30T05:54:48;7.40;92.60
54938;DHT22;52756;52.826;6.214;2024-01-30T05:57:14;7.40;92.50
54938;DHT22;52756;52.826;6.214;2024-01-30T05:59:39;7.50;92.50
54938;DHT22;52756;52.826;6.214;2024-01-30T06:02:05;7.40;92.50
54938;DHT22;52756;52.826;6.214;2024-01-30T06:04:30;7.40;92.50
54938;DHT22;52756;52.826;6.214;2024-01-30T06:06:56;7.40;92.50
54938;DHT22;52756;52.826;6.214;2024-01-30T06:09:22;7.40;92.40
54938;DHT22;52756;52.826;6.214;2024-01-30T06:11:47;7.50;92.50
54938;DHT22;52756;52.826;6.214;2024-01-30T06:14:13;7.50;92.50
54938;DHT22;52756;52.826;6.214;2024-01-30T06:16:38;7.50;92.50
54938;DHT22;52756;52.826;6.214;2024-01-30T06:19:04;7.50;92.40
54938;DHT22;52756;52.826;6.214;2024-01-30T06:21:29;7.60;92.50
54938;DHT22;52756;52.826;6.214;2024-01-30T06:23:57;7.50;92.40
54938;DHT22;52756;52.826;6.214;2024-01-30T06:26:22;7.60;92.50
54938;DHT22;52756;52.826;6.214;2024-01-30T06:28:48;7.60;92.40
54938;DHT22;52756;52.826;6.214;2024-01-30T06:31:13;8.40;92.70
54938;DHT22;52756;52.826;6.214;2024-01-30T06:33:39;7.70;92.40
54938;DHT22;52756;52.826;6.214;2024-01-30T06:36:07;7.70;92.40
54938;DHT22;52756;52.826;6.214;2024-01-30T06:38:33;7.70;92.40
54938;DHT22;52756;52.826;6.214;2024-01-30T06:40:58;7.70;92.40
54938;DHT22;52756;52.826;6.214;2024-01-30T06:43:24;7.80;92.40
54938;DHT22;52756;52.826;6.214;2024-01-30T06:45:49;7.90;92.40
54938;DHT22;52756;52.826;6.214;2024-01-30T06:48:17;7.80;92.40
54938;DHT22;52756;52.826;6.214;2024-01-30T06:50:42;7.80;92.30
54938;DHT22;52756;52.826;6.214;2024-01-30T06:53:08;7.90;92.40
54938;DHT22;52756;52.826;6.214;2024-01-30T06:55:34;7.90;92.30
54938;DHT22;52756;52.826;6.214;2024-01-30T06:57:59;7.90;92.30
54938;DHT22;52756;52.826;6.214;2024-01-30T07:00:25;7.90;92.30
54938;DHT22;52756;52.826;6.214;2024-01-30T07:02:50;7.90;92.30
54938;DHT22;52756;52.826;6.214;2024-01-30T07:05:16;8.00;92.30
54938;DHT22;52756;52.826;6.214;2024-01-30T07:07:43;8.00;92.20
54938;DHT22;52756;52.826;6.214;2024-01-30T07:10:08;8.00;92.20
54938;DHT22;52756;52.826;6.214;2024-01-30T07:12:34;8.40;92.30
54938;DHT22;52756;52.826;6.214;2024-01-30T07:15:00;8.00;92.10
54938;DHT22;52756;52.826;6.214;2024-01-30T07:17:25;8.00;92.10
54938;DHT22;52756;52.826;6.214;2024-01-30T07:19:51;8.00;92.10
54938;DHT22;52756;52.826;6.214;2024-01-30T07:22:16;8.00;92.10
54938;DHT22;52756;52.826;6.214;2024-01-30T07:24:43;8.10;92.10
54938;DHT22;52756;52.826;6.214;2024-01-30T07:27:10;8.10;92.10
54938;DHT22;52756;52.826;6.214;2024-01-30T07:29:35;8.10;92.10
54938;DHT22;52756;52.826;6.214;2024-01-30T07:32:01;8.10;92.00
54938;DHT22;52756;52.826;6.214;2024-01-30T07:34:27;8.20;92.10
54938;DHT22;52756;52.826;6.214;2024-01-30T07:36:53;8.70;92.20
54938;DHT22;52756;52.826;6.214;2024-01-30T07:39:18;8.80;92.20
54938;DHT22;52756;52.826;6.214;2024-01-30T07:41:44;8.20;92.00
54938;DHT22;52756;52.826;6.214;2024-01-30T07:44:09;8.20;92.00
54938;DHT22;52756;52.826;6.214;2024-01-30T07:46:35;8.20;91.90
54938;DHT22;52756;52.826;6.214;2024-01-30T07:49:00;8.20;91.90
54938;DHT22;52756;52.826;6.214;2024-01-30T07:51:27;8.20;91.90
54938;DHT22;52756;52.826;6.214;2024-01-30T07:53:54;8.30;91.90
54938;DHT22;52756;52.826;6.214;2024-01-30T07:56:20;8.30;91.80
54938;DHT22;52756;52.826;6.214;2024-01-30T07:58:46;8.30;91.80
54938;DHT22;52756;52.826;6.214;2024-01-30T08:01:11;8.30;91.80
54938;DHT22;52756;52.826;6.214;2024-01-30T08:03:37;8.30;91.80
54938;DHT22;52756;52.826;6.214;2024-01-30T08:06:05;8.30;91.80
54938;DHT22;52756;52.826;6.214;2024-01-30T08:08:32;8.30;91.80
54938;DHT22;52756;52.826;6.214;2024-01-30T08:10:57;8.40;91.80
54938;DHT22;52756;52.826;6.214;2024-01-30T08:13:23;8.40;91.70
54938;DHT22;52756;52.826;6.214;2024-01-30T08:15:48;8.40;91.70
54938;DHT22;52756;52.826;6.214;2024-01-30T08:18:14;8.40;91.70
54938;DHT22;52756;52.826;6.214;2024-01-30T08:20:39;8.40;91.70
54938;DHT22;52756;52.826;6.214;2024-01-30T08:23:05;8.40;91.60
54938;DHT22;52756;52.826;6.214;2024-01-30T08:25:31;9.20;91.90
54938;DHT22;52756;52.826;6.214;2024-01-30T08:27:57;8.50;91.60
54938;DHT22;52756;52.826;6.214;2024-01-30T08:30:22;8.60;91.70
54938;DHT22;52756;52.826;6.214;2024-01-30T08:32:48;8.50;91.60
54938;DHT22;52756;52.826;6.214;2024-01-30T08:35:14;8.50;91.60
54938;DHT22;52756;52.826;6.214;2024-01-30T08:37:41;8.50;91.60
54938;DHT22;52756;52.826;6.214;2024-01-30T08:40:07;8.50;91.60
54938;DHT22;52756;52.826;6.214;2024-01-30T08:42:34;8.50;91.60
54938;DHT22;52756;52.826;6.214;2024-01-30T08:44:59;8.50;91.60
54938;DHT22;52756;52.826;6.214;2024-01-30T08:47:25;8.50;91.60
54938;DHT22;52756;52.826;6.214;2024-01-30T08:49:51;8.60;91.60
54938;DHT22;52756;52.826;6.214;2024-01-30T08:52:17;8.90;91.70
54938;DHT22;52756;52.826;6.214;2024-01-30T08:54:42;8.90;91.80
54938;DHT22;52756;52.826;6.214;2024-01-30T08:57:08;8.60;91.70
54938;DHT22;52756;52.826;6.214;2024-01-30T08:59:34;8.60;91.70
54938;DHT22;52756;52.826;6.214;2024-01-30T09:01:59;8.60;91.70
54938;DHT22;52756;52.826;6.214;2024-01-30T09:04:25;9.10;91.90
54938;DHT22;52756;52.826;6.214;2024-01-30T09:06:51;8.60;91.80
54938;DHT22;52756;52.826;6.214;2024-01-30T09:09:16;8.60;91.80
54938;DHT22;52756;52.826;6.214;2024-01-30T09:11:43;8.70;91.90
54938;DHT22;52756;52.826;6.214;2024-01-30T09:14:09;8.70;91.90
54938;DHT22;52756;52.826;6.214;2024-01-30T09:16:34;8.70;91.90
54938;DHT22;52756;52.826;6.214;2024-01-30T09:19:00;8.80;91.90
54938;DHT22;52756;52.826;6.214;2024-01-30T09:21:26;8.80;92.00
54938;DHT22;52756;52.826;6.214;2024-01-30T09:23:54;8.80;92.00
54938;DHT22;52756;52.826;6.214;2024-01-30T09:26:20;8.80;92.00
54938;DHT22;52756;52.826;6.214;2024-01-30T09:28:45;8.90;92.10
54938;DHT22;52756;52.826;6.214;2024-01-30T09:31:12;8.90;92.10
54938;DHT22;52756;52.826;6.214;2024-01-30T09:33:38;8.90;92.10
54938;DHT22;52756;52.826;6.214;2024-01-30T09:36:05;8.90;92.10
54938;DHT22;52756;52.826;6.214;2024-01-30T09:38:31;9.00;92.10
54938;DHT22;52756;52.826;6.214;2024-01-30T09:41:01;9.20;92.10
54938;DHT22;52756;52.826;6.214;2024-01-30T09:43:32;9.00;92.10
54938;DHT22;52756;52.826;6.214;2024-01-30T09:46:00;9.70;92.30
54938;DHT22;52756;52.826;6.214;2024-01-30T09:48:28;9.10;92.10
54938;DHT22;52756;52.826;6.214;2024-01-30T09:50:54;9.20;92.20
54938;DHT22;52756;52.826;6.214;2024-01-30T09:53:20;9.10;92.20
54938;DHT22;52756;52.826;6.214;2024-01-30T09:55:47;9.20;92.20
54938;DHT22;52756;52.826;6.214;2024-01-30T09:58:12;9.20;92.20
54938;DHT22;52756;52.826;6.214;2024-01-30T10:00:39;9.50;92.30
54938;DHT22;52756;52.826;6.214;2024-01-30T10:03:04;9.30;92.30
54938;DHT22;52756;52.826;6.214;2024-01-30T10:05:31;9.30;92.40
54938;DHT22;52756;52.826;6.214;2024-01-30T10:07:59;9.30;92.40
54938;DHT22;52756;52.826;6.214;2024-01-30T10:10:25;9.40;92.50
54938;DHT22;52756;52.826;6.214;2024-01-30T10:12:51;9.50;92.50
54938;DHT22;52756;52.826;6.214;2024-01-30T10:15:17;9.50;92.50
54938;DHT22;52756;52.826;6.214;2024-01-30T10:17:45;9.50;92.50
54938;DHT22;52756;52.826;6.214;2024-01-30T10:20:11;9.60;92.50
54938;DHT22;52756;52.826;6.214;2024-01-30T10:22:36;9.60;92.40
54938;DHT22;52756;52.826;6.214;2024-01-30T10:25:02;9.70;92.50
54938;DHT22;52756;52.826;6.214;2024-01-30T10:27:28;9.70;92.40
54938;DHT22;52756;52.826;6.214;2024-01-30T10:29:55;9.70;92.40
54938;DHT22;52756;52.826;6.214;2024-01-30T10:32:21;10.60;92.60
54938;DHT22;52756;52.826;6.214;2024-01-30T10:34:47;9.80;92.40
54938;DHT22;52756;52.826;6.214;2024-01-30T10:37:13;10.50;92.60
54938;DHT22;52756;52.826;6.214;2024-01-30T10:39:46;9.80;92.30
54938;DHT22;52756;52.826;6.214;2024-01-30T10:42:17;9.90;92.40
54938;DHT22;52756;52.826;6.214;2024-01-30T10:47:28;9.90;92.30
54938;DHT22;52756;52.826;6.214;2024-01-30T10:49:55;10.00;92.30
54938;DHT22;52756;52.826;6.214;2024-01-30T10:52:23;10.00;92.30
54938;DHT22;52756;52.826;6.214;2024-01-30T10:54:51;10.00;92.30
54938;DHT22;52756;52.826;6.214;2024-01-30T10:57:18;10.00;92.20
54938;DHT22;52756;52.826;6.214;2024-01-30T10:59:44;10.10;92.20
54938;DHT22;52756;52.826;6.214;2024-01-30T11:02:11;10.00;92.20
54938;DHT22;52756;52.826;6.214;2024-01-30T11:04:37;10.10;92.20
54938;DHT22;52756;52.826;6.214;2024-01-30T11:07:14;10.10;92.20
54938;DHT22;52756;52.826;6.214;2024-01-30T11:09:47;10.10;92.20
54938;DHT22;52756;52.826;6.214;2024-01-30T11:12:13;10.20;92.20
54938;DHT22;52756;52.826;6.214;2024-01-30T11:14:39;10.10;92.10
54938;DHT22;52756;52.826;6.214;2024-01-30T11:17:05;10.20;92.10
54938;DHT22;52756;52.826;6.214;2024-01-30T11:19:31;10.20;92.10
54938;DHT22;52756;52.826;6.214;2024-01-30T11:21:57;10.20;92.10
54938;DHT22;52756;52.826;6.214;2024-01-30T11:24:24;10.20;92.10
54938;DHT22;52756;52.826;6.214;2024-01-30T11:26:55;10.20;92.10
54938;DHT22;52756;52.826;6.214;2024-01-30T11:29:27;10.40;92.10
54938;DHT22;52756;52.826;6.214;2024-01-30T11:32:00;10.20;92.00
54938;DHT22;52756;52.826;6.214;2024-01-30T11:34:25;10.30;92.00
54938;DHT22;52756;52.826;6.214;2024-01-30T11:37:04;10.30;91.90
54938;DHT22;52756;52.826;6.214;2024-01-30T11:39:35;10.30;91.80
54938;DHT22;52756;52.826;6.214;2024-01-30T11:42:03;10.60;91.90
54938;DHT22;52756;52.826;6.214;2024-01-30T11:44:30;10.30;91.70
54938;DHT22;52756;52.826;6.214;2024-01-30T11:46:56;10.30;91.60
54938;DHT22;52756;52.826;6.214;2024-01-30T11:49:21;10.30;91.50
54938;DHT22;52756;52.826;6.214;2024-01-30T11:51:48;10.90;91.60
54938;DHT22;52756;52.826;6.214;2024-01-30T11:54:17;10.80;91.40
54938;DHT22;52756;52.826;6.214;2024-01-30T11:56:43;10.30;91.20
54938;DHT22;52756;52.826;6.214;2024-01-30T11:59:09;10.30;91.20
54938;DHT22;52756;52.826;6.214;2024-01-30T12:01:35;10.20;91.00
54938;DHT22;52756;52.826;6.214;2024-01-30T12:04:01;10.20;90.90
54938;DHT22;52756;52.826;6.214;2024-01-30T12:06:27;10.20;90.90
54938;DHT22;52756;52.826;6.214;2024-01-30T12:09:00;10.20;90.90
54938;DHT22;52756;52.826;6.214;2024-01-30T12:11:27;10.20;90.80
54938;DHT22;52756;52.826;6.214;2024-01-30T12:13:53;10.20;90.70
54938;DHT22;52756;52.826;6.214;2024-01-30T12:16:20;10.20;90.60
54938;DHT22;52756;52.826;6.214;2024-01-30T12:18:45;10.20;90.50
54938;DHT22;52756;52.826;6.214;2024-01-30T12:21:11;10.20;90.40
54938;DHT22;52756;52.826;6.214;2024-01-30T12:23:37;10.20;90.20
54938;DHT22;52756;52.826;6.214;2024-01-30T12:26:03;10.60;90.10
54938;DHT22;52756;52.826;6.214;2024-01-30T12:28:32;10.30;89.80
54938;DHT22;52756;52.826;6.214;2024-01-30T12:31:04;10.20;89.50
54938;DHT22;52756;52.826;6.214;2024-01-30T12:33:31;10.40;89.40
54938;DHT22;52756;52.826;6.214;2024-01-30T12:35:57;10.20;89.10
54938;DHT22;52756;52.826;6.214;2024-01-30T12:38:27;10.20;89.00
54938;DHT22;52756;52.826;6.214;2024-01-30T12:40:55;10.20;89.00
54938;DHT22;52756;52.826;6.214;2024-01-30T12:43:22;10.20;88.80
54938;DHT22;52756;52.826;6.214;2024-01-30T12:45:50;10.20;88.80
54938;DHT22;52756;52.826;6.214;2024-01-30T12:48:15;10.20;88.80
54938;DHT22;52756;52.826;6.214;2024-01-30T12:50:41;10.20;89.00
54938;DHT22;52756;52.826;6.214;2024-01-30T12:53:07;10.20;89.00
54938;DHT22;52756;52.826;6.214;2024-01-30T12:55:34;10.20;89.00
54938;DHT22;52756;52.826;6.214;2024-01-30T12:58:00;10.20;89.00
54938;DHT22;52756;52.826;6.214;2024-01-30T13:00:25;10.20;89.00
54938;DHT22;52756;52.826;6.214;2024-01-30T13:02:51;10.20;89.00
54938;DHT22;52756;52.826;6.214;2024-01-30T13:05:17;10.10;88.90
54938;DHT22;52756;52.826;6.214;2024-01-30T13:07:43;10.10;89.00
54938;DHT22;52756;52.826;6.214;2024-01-30T13:10:09;10.10;89.10
54938;DHT22;52756;52.826;6.214;2024-01-30T13:12:35;10.10;89.10
54938;DHT22;52756;52.826;6.214;2024-01-30T13:15:02;10.00;89.00
54938;DHT22;52756;52.826;6.214;2024-01-30T13:17:30;10.00;89.20
54938;DHT22;52756;52.826;6.214;2024-01-30T13:19:56;10.00;89.30
54938;DHT22;52756;52.826;6.214;2024-01-30T13:22:21;10.00;89.40
54938;DHT22;52756;52.826;6.214;2024-01-30T13:24:47;10.00;89.50
54938;DHT22;52756;52.826;6.214;2024-01-30T13:27:13;10.00;89.50
54938;DHT22;52756;52.826;6.214;2024-01-30T13:29:39;10.00;89.50
54938;DHT22;52756;52.826;6.214;2024-01-30T13:32:05;10.00;89.50
54938;DHT22;52756;52.826;6.214;2024-01-30T13:34:31;10.00;89.50
54938;DHT22;52756;52.826;6.214;2024-01-30T13:36:56;10.00;89.40
54938;DHT22;52756;52.826;6.214;2024-01-30T13:39:22;10.00;89.40
54938;DHT22;52756;52.826;6.214;2024-01-30T13:41:48;10.00;89.40
54938;DHT22;52756;52.826;6.214;2024-01-30T13:44:15;10.00;89.40
54938;DHT22;52756;52.826;6.214;2024-01-30T13:46:42;10.00;89.20
54938;DHT22;52756;52.826;6.214;2024-01-30T13:49:08;10.00;89.10
54938;DHT22;52756;52.826;6.214;2024-01-30T13:51:33;10.00;89.00
54938;DHT22;52756;52.826;6.214;2024-01-30T13:53:59;10.00;88.90
54938;DHT22;52756;52.826;6.214;2024-01-30T13:56:25;10.00;89.00
54938;DHT22;52756;52.826;6.214;2024-01-30T13:58:52;10.00;89.10
54938;DHT22;52756;52.826;6.214;2024-01-30T14:01:18;10.00;89.10
54938;DHT22;52756;52.826;6.214;2024-01-30T14:03:44;10.00;89.10
54938;DHT22;52756;52.826;6.214;2024-01-30T14:06:11;9.90;89.10
54938;DHT22;52756;52.826;6.214;2024-01-30T14:08:37;9.90;89.20
54938;DHT22;52756;52.826;6.214;2024-01-30T14:11:02;9.90;89.40
54938;DHT22;52756;52.826;6.214;2024-01-30T14:13:29;9.80;89.50
54938;DHT22;52756;52.826;6.214;2024-01-30T14:15:56;9.80;89.70
54938;DHT22;52756;52.826;6.214;2024-01-30T14:18:22;9.80;89.70
54938;DHT22;52756;52.826;6.214;2024-01-30T14:20:47;9.80;89.80
54938;DHT22;52756;52.826;6.214;2024-01-30T14:23:13;9.80;89.90
54938;DHT22;52756;52.826;6.214;2024-01-30T14:25:39;9.80;90.00
54938;DHT22;52756;52.826;6.214;2024-01-30T14:28:04;9.70;90.00
54938;DHT22;52756;52.826;6.214;2024-01-30T14:30:31;9.70;90.20
54938;DHT22;52756;52.826;6.214;2024-01-30T14:32:57;9.70;90.20
54938;DHT22;52756;52.826;6.214;2024-01-30T14:35:23;9.70;90.30
54938;DHT22;52756;52.826;6.214;2024-01-30T14:37:48;9.60;90.30
54938;DHT22;52756;52.826;6.214;2024-01-30T14:40:14;9.60;90.40
54938;DHT22;52756;52.826;6.214;2024-01-30T14:42:40;9.60;90.60
54938;DHT22;52756;52.826;6.214;2024-01-30T14:45:06;9.50;90.70
54938;DHT22;52756;52.826;6.214;2024-01-30T14:47:32;9.50;90.80
54938;DHT22;52756;52.826;6.214;2024-01-30T14:49:58;9.50;91.00
54938;DHT22;52756;52.826;6.214;2024-01-30T14:52:23;9.40;91.00
54938;DHT22;52756;52.826;6.214;2024-01-30T14:54:49;9.40;91.10
54938;DHT22;52756;52.826;6.214;2024-01-30T14:57:15;9.40;91.20
54938;DHT22;52756;52.826;6.214;2024-01-30T14:59:40;9.30;91.20
54938;DHT22;52756;52.826;6.214;2024-01-30T15:02:06;9.30;91.40
54938;DHT22;52756;52.826;6.214;2024-01-30T15:04:32;9.30;91.40
54938;DHT22;52756;52.826;6.214;2024-01-30T15:06:57;9.20;91.50
54938;DHT22;52756;52.826;6.214;2024-01-30T15:09:23;9.20;91.60
54938;DHT22;52756;52.826;6.214;2024-01-30T15:11:49;9.10;91.60
54938;DHT22;52756;52.826;6.214;2024-01-30T15:14:15;9.70;91.90
54938;DHT22;52756;52.826;6.214;2024-01-30T15:16:41;9.70;92.00
54938;DHT22;52756;52.826;6.214;2024-01-30T15:19:07;9.10;91.90
54938;DHT22;52756;52.826;6.214;2024-01-30T15:21:33;9.10;91.90
54938;DHT22;52756;52.826;6.214;2024-01-30T15:23:58;9.10;92.00
54938;DHT22;52756;52.826;6.214;2024-01-30T15:26:24;9.00;92.10
54938;DHT22;52756;52.826;6.214;2024-01-30T15:28:50;9.00;92.20
54938;DHT22;52756;52.826;6.214;2024-01-30T15:31:16;9.00;92.30
54938;DHT22;52756;52.826;6.214;2024-01-30T15:33:41;8.90;92.30
54938;DHT22;52756;52.826;6.214;2024-01-30T15:36:08;8.90;92.40
54938;DHT22;52756;52.826;6.214;2024-01-30T15:38:34;8.90;92.50